ZLXY Airport Information

Runway Information
Runway 05 Length 9842 ft width 148 ft
Elevation 1562 ft Threshold 0 ft Heading 49
Runway 23 Length 9842 ft Width 148 ft
Elevation 1568 ft Threshold 0 ft Heading 229
Airport Frequencies
Type APP Name APP Frequency 119.6 MHZ
Type ATIS Name ATIS Frequency 127.45 MHZ
Type GND Name GND Frequency 121.8 MHZ
Type TWR Name TWR Frequency 124.3 MHZ
Airport Navaids
Type NDB Name Sanyuan Frequency 202 KHZ
Type VOR-DME Name Xianyang Frequency 115300 KHZ
Type NDB Name Yanzhuang Frequency 359 KHZ
Airport Weather Information & NOTAM
ADDS - METARS form results

(0201 UTC 22 January 2019)
Data provider http://aviationweather.gov/metar/data/
 
Forecast for: ZLXY (XIANYANG , CN)
Text: TAF ZLXY 211909Z 2200/2224 26003MPS 3000 HZ NSC TX09/2207Z TNM09/22Z
Forecast period: 0000 UTC 22 January 2019 to 0000 UTC 23 January 2019
Forecast type: FROM: standard forecast or significant change
Winds: from the W (260 degrees) at 7 MPH (6 knots; 3.1 m/s)
Visibility: 1.86 miles (2.99 km)
Ceiling: unknown
Clouds: missing
Weather: HZ  (haze)